Time;durP1;ratioP1;P1;durP2;ratioP2;P2;SDS_P1;SDS_P2;PMS_P1;PMS_P2;Temp;Humidity;BMP_temperature;BMP_pressure;BME280_temperature;BME280_humidity;BME280_pressure;Samples;Min_cycle;Max_cycle;Signal;HPM_P1;HPM_P2
2022/10/25 00:00:41;;;;;;;13.57;6.43;;;12.10;99.90;;;;;;4976665;28;20576;-79
2022/10/25 00:03:08;;;;;;;15.82;6.18;;;12.10;99.90;;;;;;5000735;28;20288;-80
2022/10/25 00:05:34;;;;;;;15.75;6.47;;;12.10;99.90;;;;;;5000955;28;20486;-80
2022/10/25 00:08:00;;;;;;;19.80;6.38;;;12.10;99.90;;;;;;4996838;28;20041;-79
2022/10/25 00:10:26;;;;;;;18.15;7.00;;;12.10;99.90;;;;;;5002929;28;20076;-79
2022/10/25 00:12:52;;;;;;;17.40;6.63;;;12.00;99.90;;;;;;4999458;28;20053;-79
2022/10/25 00:15:18;;;;;;;19.75;6.93;;;12.00;99.90;;;;;;5002434;28;20042;-80
2022/10/25 00:17:44;;;;;;;18.50;7.45;;;12.00;99.90;;;;;;5004286;28;20039;-80
2022/10/25 00:20:11;;;;;;;18.35;7.55;;;12.00;99.90;;;;;;4990818;28;20386;-79
2022/10/25 00:22:37;;;;;;;14.55;7.38;;;12.00;99.90;;;;;;4979579;28;20038;-80
2022/10/25 00:25:03;;;;;;;15.02;7.55;;;12.00;99.90;;;;;;4987417;28;20073;-80
2022/10/25 00:27:29;;;;;;;21.92;7.85;;;12.10;99.90;;;;;;5002337;28;20482;-80
2022/10/25 00:29:55;;;;;;;16.83;7.45;;;12.10;99.90;;;;;;5002834;28;20121;-79
2022/10/25 00:32:20;;;;;;;17.00;7.10;;;12.10;99.90;;;;;;5005421;28;20049;-80
2022/10/25 00:34:46;;;;;;;27.70;8.70;;;12.00;99.90;;;;;;4980494;28;20620;-80
2022/10/25 00:37:12;;;;;;;16.80;7.65;;;12.00;99.90;;;;;;4989837;28;20304;-80
2022/10/25 00:39:37;;;;;;;20.00;8.20;;;12.10;99.90;;;;;;5008646;28;20041;-81
2022/10/25 00:42:03;;;;;;;21.00;8.40;;;12.00;99.90;;;;;;4987481;28;20042;-80
2022/10/25 00:44:35;;;;;;;22.35;8.70;;;12.00;99.90;;;;;;5003975;28;20296;-80
2022/10/25 00:47:19;;;;;;;22.90;9.10;;;12.10;99.90;;;;;;4998932;28;20065;-80
2022/10/25 00:50:12;;;;;;;25.02;10.13;;;12.10;99.90;;;;;;5006606;28;20077;-80
2022/10/25 00:52:40;;;;;;;27.17;9.27;;;12.20;99.90;;;;;;4973938;28;20128;-80
2022/10/25 00:55:08;;;;;;;26.17;9.70;;;12.30;99.90;;;;;;4988259;28;20038;-80
2022/10/25 00:57:55;;;;;;;22.15;9.75;;;12.30;99.90;;;;;;5003747;28;20029;-80
2022/10/25 01:00:21;;;;;;;23.65;9.52;;;12.40;99.90;;;;;;5024775;28;20042;-80
2022/10/25 01:02:47;;;;;;;26.27;10.77;;;12.40;99.90;;;;;;5005384;28;20044;-80
2022/10/25 01:05:15;;;;;;;27.95;10.27;;;12.40;99.90;;;;;;5001943;28;20034;-80
2022/10/25 01:07:41;;;;;;;26.90;11.25;;;12.40;99.90;;;;;;4998500;28;20034;-80
2022/10/25 01:10:07;;;;;;;21.90;8.52;;;12.40;99.90;;;;;;4991309;28;20035;-80
2022/10/25 01:12:33;;;;;;;26.83;10.50;;;12.50;99.90;;;;;;5002642;28;20037;-80
2022/10/25 01:14:59;;;;;;;28.80;11.65;;;12.60;99.90;;;;;;4988825;28;20033;-80
2022/10/25 01:17:35;;;;;;;23.95;9.95;;;12.50;99.90;;;;;;5002972;28;20046;-80
2022/10/25 01:20:46;;;;;;;26.67;9.70;;;12.60;99.90;;;;;;4999401;28;20042;-80
2022/10/25 01:23:14;;;;;;;22.55;9.52;;;12.60;99.90;;;;;;4982019;28;20068;-79
2022/10/25 01:25:58;;;;;;;24.60;9.45;;;12.60;99.90;;;;;;5002677;28;20069;-80
2022/10/25 01:28:55;;;;;;;26.27;10.50;;;12.60;99.90;;;;;;4986105;28;20069;-80
2022/10/25 01:31:47;;;;;;;28.30;11.13;;;12.60;99.90;;;;;;5003259;28;20121;-81
2022/10/25 01:34:30;;;;;;;23.90;9.82;;;12.60;99.90;;;;;;5002414;28;20047;-81
2022/10/25 01:37:02;;;;;;;22.95;9.15;;;12.50;99.90;;;;;;5005186;28;20490;-81
2022/10/25 01:39:29;;;;;;;22.45;9.70;;;12.60;99.90;;;;;;4987840;28;20445;-81
2022/10/25 01:42:09;;;;;;;23.92;10.13;;;12.60;99.90;;;;;;4999380;28;20031;-81
2022/10/25 01:44:41;;;;;;;22.60;9.38;;;12.60;99.90;;;;;;5004459;28;20039;-81
2022/10/25 01:47:23;;;;;;;20.08;8.85;;;12.60;99.90;;;;;;5002308;28;20390;-81
2022/10/25 01:49:56;;;;;;;21.63;9.40;;;12.60;99.90;;;;;;4999884;28;20116;-81
2022/10/25 01:52:23;;;;;;;24.48;10.45;;;12.60;99.90;;;;;;5009273;28;20042;-81
2022/10/25 01:54:49;;;;;;;;;;;12.60;99.90;;;;;;4977031;28;20046;-81
2022/10/25 01:57:26;;;;;;;27.77;8.73;;;12.70;99.90;;;;;;5011642;28;19983;-81
2022/10/25 02:00:06;;;;;;;20.55;8.25;;;12.60;99.90;;;;;;4996296;28;20417;-80
2022/10/25 02:02:43;;;;;;;23.40;9.13;;;12.70;99.90;;;;;;5004105;28;20044;-81
2022/10/25 02:05:26;;;;;;;22.20;9.50;;;12.60;99.90;;;;;;5001676;28;20117;-81
2022/10/25 02:08:11;;;;;;;21.25;9.40;;;12.60;99.90;;;;;;4982918;28;20037;-81
2022/10/25 02:10:49;;;;;;;23.33;10.40;;;12.60;99.90;;;;;;4982950;28;20042;-80
2022/10/25 02:13:19;;;;;;;24.05;9.80;;;12.50;99.90;;;;;;4982457;28;20056;-80
2022/10/25 02:16:14;;;;;;;23.65;8.88;;;12.50;99.90;;;;;;5005988;28;20044;-80
2022/10/25 02:18:45;;;;;;;31.15;9.35;;;12.50;99.90;;;;;;4979027;28;20050;-80
2022/10/25 02:21:13;;;;;;;18.52;9.45;;;12.50;99.90;;;;;;4998773;28;20060;-80
2022/10/25 02:23:40;;;;;;;22.95;9.40;;;12.60;99.90;;;;;;5008773;28;20482;-80
2022/10/25 02:26:08;;;;;;;27.35;10.07;;;12.60;99.90;;;;;;4973814;28;20042;-80
2022/10/25 02:28:39;;;;;;;25.83;10.05;;;12.50;99.90;;;;;;5003242;28;20073;-81
2022/10/25 02:31:13;;;;;;;22.33;8.98;;;12.50;99.90;;;;;;5003127;28;20042;-81
2022/10/25 02:33:39;;;;;;;22.73;8.98;;;12.50;99.90;;;;;;4996038;28;20043;-81
2022/10/25 02:36:13;;;;;;;20.77;9.17;;;12.50;99.90;;;;;;5000700;28;20038;-81
2022/10/25 02:38:39;;;;;;;20.35;9.93;;;12.60;99.90;;;;;;4982099;28;20321;-81
2022/10/25 02:41:05;;;;;;;;;;;12.60;99.90;;;;;;4997039;28;20430;-81
2022/10/25 02:43:31;;;;;;;22.25;9.93;;;12.60;99.90;;;;;;5004537;28;19918;-81
2022/10/25 02:45:58;;;;;;;25.58;10.77;;;12.70;99.90;;;;;;4983798;28;20042;-81
2022/10/25 02:48:24;;;;;;;25.70;11.25;;;12.60;99.90;;;;;;5000994;28;20084;-81
2022/10/25 02:50:50;;;;;;;25.33;12.13;;;12.60;99.90;;;;;;5007170;28;20037;-82
2022/10/25 02:53:16;;;;;;;25.23;11.88;;;12.60;99.90;;;;;;4998106;28;20479;-81
2022/10/25 02:55:43;;;;;;;33.05;11.57;;;12.60;99.90;;;;;;5004892;28;20042;-81
2022/10/25 02:58:09;;;;;;;29.73;11.80;;;12.60;99.90;;;;;;4993732;28;20042;-81
2022/10/25 03:00:34;;;;;;;25.80;11.57;;;12.60;99.90;;;;;;4977594;28;20056;-81
2022/10/25 03:03:00;;;;;;;25.07;11.20;;;12.60;99.90;;;;;;5000558;28;20305;-81
2022/10/25 03:05:25;;;;;;;26.10;11.65;;;12.60;99.90;;;;;;4982442;28;20038;-81
2022/10/25 03:07:51;;;;;;;21.75;10.50;;;12.60;99.90;;;;;;4989189;28;20066;-81
2022/10/25 03:10:17;;;;;;;27.47;11.37;;;12.60;99.90;;;;;;5000325;28;20508;-81
2022/10/25 03:12:42;;;;;;;22.47;10.40;;;12.50;99.90;;;;;;4981583;28;20856;-81
2022/10/25 03:15:08;;;;;;;19.60;9.77;;;12.50;99.90;;;;;;4964042;28;20296;-81
2022/10/25 03:17:34;;;;;;;19.70;9.52;;;12.50;99.90;;;;;;4980428;28;20038;-81
2022/10/25 03:20:00;;;;;;;23.20;8.73;;;12.50;99.90;;;;;;4978943;28;20089;-81
2022/10/25 03:22:25;;;;;;;24.33;9.33;;;12.50;99.90;;;;;;4981505;28;20315;-81
2022/10/25 03:24:51;;;;;;;18.40;8.57;;;12.50;99.90;;;;;;4984654;28;20038;-81
2022/10/25 03:27:17;;;;;;;23.47;8.83;;;12.50;99.90;;;;;;5002679;28;20285;-81
2022/10/25 03:29:42;;;;;;;21.07;8.53;;;12.50;99.90;;;;;;4985015;28;20285;-81
2022/10/25 03:32:08;;;;;;;21.55;8.50;;;12.50;99.90;;;;;;5002118;28;20084;-81
2022/10/25 03:34:34;;;;;;;15.05;6.65;;;12.50;99.90;;;;;;5005354;28;20371;-81
2022/10/25 03:37:00;;;;;;;23.67;8.37;;;12.60;99.90;;;;;;4982761;28;20038;-81
2022/10/25 03:39:25;;;;;;;25.13;8.13;;;12.60;99.90;;;;;;4972417;28;20038;-81
2022/10/25 03:41:51;;;;;;;23.90;8.60;;;12.60;99.90;;;;;;4999626;28;20034;-81
2022/10/25 03:44:17;;;;;;;19.57;7.80;;;12.60;99.90;;;;;;4985834;28;21219;-81
2022/10/25 03:46:42;;;;;;;20.10;7.65;;;12.60;99.90;;;;;;5000303;28;20293;-82
2022/10/25 03:49:08;;;;;;;23.80;8.03;;;12.60;99.90;;;;;;5001386;28;20401;-81
2022/10/25 03:51:34;;;;;;;20.60;7.87;;;12.50;99.90;;;;;;5000748;28;20288;-81
2022/10/25 03:53:59;;;;;;;21.23;7.57;;;12.50;99.90;;;;;;4971063;28;20296;-81
2022/10/25 03:56:25;;;;;;;22.77;7.80;;;12.50;99.90;;;;;;5006757;28;20048;-81
2022/10/25 03:58:52;;;;;;;20.87;8.13;;;13.20;99.90;;;;;;4996557;28;20042;-81
2022/10/25 04:01:17;;;;;;;20.08;8.27;;;12.60;99.90;;;;;;4984664;28;20297;-81
2022/10/25 04:03:44;;;;;;;18.38;7.93;;;12.60;99.90;;;;;;4991739;28;20042;-81
2022/10/25 04:06:10;;;;;;;29.25;9.45;;;12.70;99.90;;;;;;5004660;28;20038;-81
2022/10/25 04:08:36;;;;;;;23.52;9.98;;;12.60;99.90;;;;;;4985007;28;20035;-81
2022/10/25 04:11:02;;;;;;;;;;;12.70;99.90;;;;;;5009088;28;20073;-81
2022/10/25 04:13:28;;;;;;;29.95;10.18;;;12.60;99.90;;;;;;5006237;28;20407;-82
2022/10/25 04:15:53;;;;;;;23.92;9.77;;;12.60;99.90;;;;;;5005205;28;20185;-82
2022/10/25 04:18:19;;;;;;;27.67;9.30;;;12.50;99.90;;;;;;5010716;28;20120;-82
2022/10/25 04:20:45;;;;;;;25.50;9.02;;;12.40;99.90;;;;;;4983169;28;20290;-82
2022/10/25 04:23:10;;;;;;;31.63;10.30;;;12.50;99.90;;;;;;5006247;28;20411;-82
2022/10/25 04:25:36;;;;;;;24.08;9.65;;;12.40;99.90;;;;;;5006322;28;20406;-81
2022/10/25 04:28:03;;;;;;;26.52;9.70;;;12.40;99.90;;;;;;5010541;28;20100;-80
2022/10/25 04:30:29;;;;;;;25.13;10.68;;;12.40;99.90;;;;;;5003027;28;20044;-79
2022/10/25 04:32:56;;;;;;;25.23;9.50;;;12.40;99.90;;;;;;5005823;28;20042;-80
2022/10/25 04:35:22;;;;;;;23.90;9.32;;;12.40;99.90;;;;;;4990686;28;20100;-80
2022/10/25 04:37:48;;;;;;;25.40;9.33;;;12.40;99.90;;;;;;5002987;28;20077;-81
2022/10/25 04:40:14;;;;;;;25.75;9.60;;;12.30;99.90;;;;;;4989931;28;20064;-80
2022/10/25 04:42:39;;;;;;;26.02;9.00;;;12.30;99.90;;;;;;5005013;28;20121;-81
2022/10/25 04:45:05;;;;;;;21.65;9.05;;;12.30;99.90;;;;;;4988797;28;20084;-80
2022/10/25 04:47:31;;;;;;;20.98;7.82;;;12.40;99.90;;;;;;5005740;28;20038;-81
2022/10/25 04:49:57;;;;;;;24.55;9.65;;;12.30;99.90;;;;;;5005053;28;20034;-81
2022/10/25 04:52:23;;;;;;;24.17;8.70;;;12.20;99.90;;;;;;5008473;28;20038;-80
2022/10/25 04:54:49;;;;;;;26.65;9.45;;;12.20;99.90;;;;;;5004890;28;20050;-77
2022/10/25 04:57:14;;;;;;;27.67;9.73;;;12.20;99.90;;;;;;4992937;28;20525;-79
2022/10/25 04:59:40;;;;;;;28.73;9.93;;;12.20;99.90;;;;;;5008150;28;20048;-79
2022/10/25 05:02:06;;;;;;;24.85;9.30;;;12.20;99.90;;;;;;5013949;28;20312;-79
2022/10/25 05:04:32;;;;;;;22.77;9.02;;;12.20;99.90;;;;;;4979375;28;20057;-79
2022/10/25 05:06:58;;;;;;;34.75;9.57;;;12.30;99.90;;;;;;4990720;28;20042;-80
2022/10/25 05:09:23;;;;;;;28.33;9.37;;;12.30;99.90;;;;;;4998361;28;20115;-79
2022/10/25 05:11:49;;;;;;;27.50;9.93;;;12.30;99.90;;;;;;5014539;28;20060;-79
2022/10/25 05:14:15;;;;;;;26.88;9.38;;;12.40;99.90;;;;;;5014862;28;20046;-80
2022/10/25 05:16:40;;;;;;;24.65;9.25;;;12.40;99.90;;;;;;5014486;28;20042;-80
2022/10/25 05:19:06;;;;;;;23.30;8.82;;;12.30;99.90;;;;;;4998436;28;20034;-80
2022/10/25 05:21:32;;;;;;;28.45;9.00;;;12.50;99.90;;;;;;5014259;28;20049;-80
2022/10/25 05:23:59;;;;;;;34.75;11.07;;;12.50;99.90;;;;;;4978483;28;20038;-80
2022/10/25 05:26:25;;;;;;;26.58;9.63;;;12.50;99.90;;;;;;4996728;28;20438;-80
2022/10/25 05:28:53;;;;;;;34.42;11.27;;;12.50;99.90;;;;;;5014211;28;20038;-80
2022/10/25 05:31:21;;;;;;;32.03;11.45;;;12.60;99.90;;;;;;5014484;28;20124;-80
2022/10/25 05:33:55;;;;;;;40.25;12.38;;;12.60;99.90;;;;;;5014151;28;20096;-80
2022/10/25 05:36:21;;;;;;;35.78;12.88;;;12.60;99.90;;;;;;5014455;28;20502;-80
2022/10/25 05:38:47;;;;;;;37.25;13.15;;;12.60;99.90;;;;;;4997745;28;20042;-80
2022/10/25 05:41:15;;;;;;;37.60;13.60;;;12.60;99.90;;;;;;5013871;28;20049;-80
2022/10/25 05:43:45;;;;;;;26.90;10.52;;;12.70;99.90;;;;;;4988685;28;20093;-80
2022/10/25 05:46:13;;;;;;;28.20;10.63;;;12.70;99.90;;;;;;5011581;28;20034;-79
2022/10/25 05:48:39;;;;;;;27.80;11.68;;;12.70;99.90;;;;;;5007123;28;20481;-79
2022/10/25 05:51:11;;;;;;;27.58;9.13;;;12.70;99.90;;;;;;4994345;28;20134;-79
2022/10/25 05:53:41;;;;;;;29.35;10.43;;;12.70;99.90;;;;;;4978142;28;20042;-79
2022/10/25 05:56:07;;;;;;;21.92;8.15;;;12.70;99.90;;;;;;4994247;28;20085;-79
2022/10/25 05:58:32;;;;;;;26.63;8.53;;;12.60;99.90;;;;;;4977855;28;20438;-80
2022/10/25 06:00:59;;;;;;;25.08;8.70;;;12.60;99.90;;;;;;4993773;28;20051;-79
2022/10/25 06:03:25;;;;;;;22.02;8.80;;;12.60;99.90;;;;;;5004521;28;20549;-80
2022/10/25 06:05:51;;;;;;;23.48;8.52;;;12.50;99.90;;;;;;4997311;28;20081;-80
2022/10/25 06:08:17;;;;;;;23.73;7.38;;;12.50;99.90;;;;;;4997136;28;20038;-80
2022/10/25 06:10:42;;;;;;;26.13;8.13;;;12.40;99.90;;;;;;4984832;28;20046;-80
2022/10/25 06:13:08;;;;;;;26.30;8.70;;;12.40;99.90;;;;;;4993733;28;20290;-80
2022/10/25 06:15:38;;;;;;;24.10;7.85;;;12.30;99.90;;;;;;4978192;28;20050;-80
2022/10/25 06:18:04;;;;;;;25.38;8.15;;;12.30;99.90;;;;;;4994281;28;20514;-81
2022/10/25 06:20:29;;;;;;;21.07;7.40;;;12.30;99.90;;;;;;4993903;28;20078;-80
2022/10/25 06:22:55;;;;;;;21.83;8.07;;;12.30;99.90;;;;;;4993763;28;20306;-80
2022/10/25 06:25:21;;;;;;;21.67;7.63;;;12.20;99.90;;;;;;4977876;28;20042;-80
2022/10/25 06:27:46;;;;;;;22.50;7.77;;;12.20;99.90;;;;;;5009109;28;20295;-80
2022/10/25 06:30:12;;;;;;;23.30;7.70;;;12.30;99.90;;;;;;4967447;28;20125;-80
2022/10/25 06:32:38;;;;;;;21.63;8.50;;;12.30;99.90;;;;;;4993581;28;20285;-80
2022/10/25 06:35:04;;;;;;;26.40;7.73;;;12.40;99.90;;;;;;4961284;28;20585;-80
2022/10/25 06:37:30;;;;;;;24.38;7.78;;;12.30;99.90;;;;;;5005929;28;20291;-80
2022/10/25 06:39:55;;;;;;;24.17;7.40;;;12.30;99.90;;;;;;4982627;28;20038;-80
2022/10/25 06:42:23;;;;;;;18.60;7.07;;;12.30;99.90;;;;;;4989523;28;20308;-80
2022/10/25 06:44:49;;;;;;;24.70;7.78;;;12.50;99.90;;;;;;4996953;28;20319;-80
2022/10/25 06:47:15;;;;;;;24.20;8.33;;;12.50;99.90;;;;;;5013022;28;20045;-80
2022/10/25 06:49:40;;;;;;;22.52;6.60;;;12.50;99.90;;;;;;4996485;28;20042;-80
2022/10/25 06:52:06;;;;;;;22.95;7.68;;;12.40;99.90;;;;;;4996407;28;20104;-80
2022/10/25 06:54:32;;;;;;;14.15;6.05;;;12.50;99.90;;;;;;4980311;28;20454;-80
2022/10/25 06:56:57;;;;;;;19.48;6.38;;;12.60;99.90;;;;;;5012709;28;20049;-80
2022/10/25 06:59:23;;;;;;;17.40;7.03;;;12.50;99.90;;;;;;5007045;28;20046;-80
2022/10/25 07:01:49;;;;;;;19.00;6.28;;;12.60;99.90;;;;;;4976467;28;20310;-80
2022/10/25 07:04:15;;;;;;;20.88;6.07;;;12.60;99.90;;;;;;4977244;28;20049;-80
2022/10/25 07:06:41;;;;;;;19.60;6.78;;;12.60;99.90;;;;;;5012921;28;20045;-80
2022/10/25 07:09:08;;;;;;;18.43;6.97;;;12.70;99.90;;;;;;5012915;28;20042;-80
2022/10/25 07:11:34;;;;;;;20.48;6.22;;;12.70;99.90;;;;;;5012736;28;20785;-80
2022/10/25 07:14:03;;;;;;;16.48;5.72;;;12.80;99.90;;;;;;5012603;28;20049;-80
2022/10/25 07:16:29;;;;;;;23.35;6.70;;;12.80;99.90;;;;;;5012498;28;20046;-80
2022/10/25 07:19:02;;;;;;;19.92;6.15;;;12.80;99.90;;;;;;5012277;28;20049;-81
2022/10/25 07:21:30;;;;;;;15.88;6.18;;;12.80;99.90;;;;;;5012304;28;20129;-80
2022/10/25 07:23:56;;;;;;;19.67;6.18;;;12.80;99.90;;;;;;5011845;28;20045;-80
2022/10/25 07:26:24;;;;;;;23.83;6.55;;;12.90;99.90;;;;;;5012445;28;20398;-80
2022/10/25 07:28:53;;;;;;;16.20;5.65;;;13.00;99.90;;;;;;5012300;28;20085;-80
2022/10/25 07:31:23;;;;;;;16.30;5.45;;;13.00;99.90;;;;;;4979743;28;20088;-80
2022/10/25 07:33:50;;;;;;;13.52;5.53;;;13.00;99.90;;;;;;4995872;28;20056;-80
2022/10/25 07:36:16;;;;;;;16.60;5.28;;;13.10;99.90;;;;;;4977775;28;20050;-80
2022/10/25 07:38:42;;;;;;;16.92;5.50;;;13.40;99.90;;;;;;4999715;28;20520;-80
2022/10/25 07:41:08;;;;;;;16.83;5.20;;;13.70;99.90;;;;;;4995685;28;20038;-81
2022/10/25 07:43:34;;;;;;;15.02;4.95;;;14.10;99.90;;;;;;5012014;28;20042;-80
2022/10/25 07:45:59;;;;;;;15.45;4.93;;;14.30;99.90;;;;;;5011910;28;20042;-80
2022/10/25 07:48:25;;;;;;;13.80;3.80;;;14.50;99.90;;;;;;5012092;28;20121;-80
2022/10/25 07:50:51;;;;;;;15.02;4.82;;;14.60;99.90;;;;;;5012002;28;20089;-81
2022/10/25 07:53:17;;;;;;;18.60;4.22;;;14.80;99.90;;;;;;5012257;28;20056;-80
2022/10/25 07:55:49;;;;;;;21.38;4.50;;;15.10;99.90;;;;;;5011572;28;20034;-81
2022/10/25 07:58:15;;;;;;;9.90;3.95;;;15.40;99.90;;;;;;4992608;28;20479;-81
2022/10/25 08:00:40;;;;;;;13.63;4.20;;;15.70;99.90;;;;;;4992373;28;20049;-81
2022/10/25 08:03:06;;;;;;;12.07;3.85;;;15.90;99.90;;;;;;4978784;28;20305;-80
2022/10/25 08:05:32;;;;;;;14.27;4.32;;;16.10;99.90;;;;;;4995523;28;20046;-81
2022/10/25 08:07:57;;;;;;;16.02;4.03;;;16.40;99.90;;;;;;5011804;28;20076;-81
2022/10/25 08:10:23;;;;;;;15.77;3.85;;;16.80;99.90;;;;;;4989007;28;20041;-81
2022/10/25 08:12:49;;;;;;;12.20;3.70;;;17.10;99.90;;;;;;4995388;28;20056;-81
2022/10/25 08:15:16;;;;;;;;;;;17.40;99.90;;;;;;4996068;28;20379;-81
2022/10/25 08:17:41;;;;;;;12.90;4.18;;;17.30;99.90;;;;;;5011626;28;19918;-81
2022/10/25 08:20:07;;;;;;;12.45;3.55;;;17.50;99.90;;;;;;4995515;28;20517;-81
2022/10/25 08:22:33;;;;;;;9.45;3.15;;;17.70;99.90;;;;;;4995433;28;20478;-81
2022/10/25 08:24:59;;;;;;;12.55;3.85;;;17.60;99.90;;;;;;5011812;28;20026;-81
2022/10/25 08:27:25;;;;;;;13.15;3.75;;;17.50;99.90;;;;;;4979090;28;20076;-81
2022/10/25 08:29:51;;;;;;;12.63;4.45;;;17.20;99.90;;;;;;4981646;28;20449;-81
2022/10/25 08:32:17;;;;;;;10.32;4.03;;;16.80;99.90;;;;;;4991971;28;20173;-81
2022/10/25 08:34:43;;;;;;;12.30;4.47;;;16.40;99.90;;;;;;4991986;28;20053;-80
2022/10/25 08:37:12;;;;;;;14.73;5.05;;;16.10;99.90;;;;;;4995189;28;20046;-80
2022/10/25 08:39:38;;;;;;;15.70;4.47;;;16.30;99.90;;;;;;4979563;28;20506;-81
2022/10/25 08:42:05;;;;;;;13.73;4.80;;;16.40;99.90;;;;;;4963433;28;20108;-80
2022/10/25 08:44:35;;;;;;;16.15;4.93;;;16.30;99.90;;;;;;4995426;28;20121;-81
2022/10/25 08:47:19;;;;;;;15.43;5.20;;;16.20;99.90;;;;;;4995427;28;20042;-80
2022/10/25 08:49:56;;;;;;;16.77;5.25;;;16.10;99.90;;;;;;4979416;28;20487;-81
2022/10/25 08:52:26;;;;;;;;;;;16.10;99.90;;;;;;4995850;28;20034;-81
2022/10/25 08:54:55;;;;;;;18.73;5.78;;;16.00;99.90;;;;;;4995793;28;19972;-81
2022/10/25 08:57:26;;;;;;;13.07;5.00;;;15.80;99.90;;;;;;4997611;28;20042;-81
2022/10/25 09:00:09;;;;;;;13.45;5.10;;;15.70;99.90;;;;;;4995169;28;20078;-81
2022/10/25 09:02:50;;;;;;;19.02;5.95;;;15.50;99.90;;;;;;4994925;28;20065;-81
2022/10/25 09:05:41;;;;;;;12.48;5.40;;;15.40;99.90;;;;;;4995396;28;20034;-81
2022/10/25 09:08:20;;;;;;;17.30;5.93;;;15.40;99.90;;;;;;4989675;28;20057;-81
2022/10/25 09:10:55;;;;;;;15.93;5.93;;;15.60;99.90;;;;;;4994897;28;20093;-81
2022/10/25 09:13:39;;;;;;;16.80;5.95;;;15.90;99.90;;;;;;4995353;28;20543;-81
2022/10/25 09:16:16;;;;;;;18.67;5.88;;;16.00;99.90;;;;;;4994965;28;20041;-80
2022/10/25 09:18:48;;;;;;;16.33;6.00;;;16.40;99.90;;;;;;4994965;28;20074;-81
2022/10/25 09:21:26;;;;;;;11.35;5.35;;;16.60;99.90;;;;;;4995131;28;20542;-80
2022/10/25 09:24:08;;;;;;;15.60;5.30;;;16.60;99.90;;;;;;5011299;28;20475;-80
2022/10/25 09:26:46;;;;;;;15.07;5.38;;;16.90;99.90;;;;;;5006424;28;20042;-80
2022/10/25 09:29:23;;;;;;;13.85;5.00;;;17.00;99.90;;;;;;4994791;28;20084;-81
2022/10/25 09:31:53;;;;;;;18.63;5.30;;;17.00;99.90;;;;;;4994773;28;20418;-81
2022/10/25 09:34:21;;;;;;;12.23;5.03;;;17.10;99.90;;;;;;4999969;28;20121;-81
2022/10/25 09:36:50;;;;;;;13.85;4.68;;;17.20;99.90;;;;;;5014302;28;20042;-81
2022/10/25 09:39:24;;;;;;;17.73;4.93;;;17.50;99.90;;;;;;5013999;28;20045;-81
2022/10/25 09:41:53;;;;;;;17.08;4.80;;;17.90;99.90;;;;;;5014062;28;20446;-81
2022/10/25 09:44:36;;;;;;;14.50;4.30;;;18.00;99.90;;;;;;5014107;28;20050;-80
2022/10/25 09:47:12;;;;;;;11.35;4.00;;;18.40;99.90;;;;;;5012784;28;20038;-81
2022/10/25 09:49:43;;;;;;;10.77;3.88;;;18.80;99.90;;;;;;4995334;28;20505;-81
2022/10/25 09:52:15;;;;;;;11.70;3.97;;;19.10;99.90;;;;;;4994779;28;20042;-81
2022/10/25 09:54:58;;;;;;;10.68;3.28;;;19.30;99.90;;;;;;5001631;28;20117;-81
2022/10/25 09:57:24;;;;;;;9.57;3.42;;;19.20;99.90;;;;;;4985593;28;20046;-81
2022/10/25 09:59:50;;;;;;;11.20;3.33;;;19.30;99.90;;;;;;5003104;28;20122;-81
2022/10/25 10:02:24;;;;;;;12.45;2.95;;;19.00;99.90;;;;;;4998549;28;20086;-81
2022/10/25 10:04:50;;;;;;;12.13;3.20;;;18.80;99.90;;;;;;4999665;28;20053;-81
2022/10/25 10:07:19;;;;;;;;;;;18.50;99.90;;;;;;4969923;28;20458;-81
2022/10/25 10:09:47;;;;;;;10.35;3.00;;;18.30;99.90;;;;;;5008649;28;19921;-82
2022/10/25 10:12:29;;;;;;;12.30;3.58;;;18.40;99.90;;;;;;4997752;28;20053;-80
2022/10/25 10:15:05;;;;;;;10.52;2.90;;;18.20;99.90;;;;;;5004063;28;20042;-80
2022/10/25 10:17:31;;;;;;;13.02;2.83;;;18.00;99.90;;;;;;4996021;28;20050;-81
2022/10/25 10:20:08;;;;;;;10.77;2.78;;;18.20;99.90;;;;;;5013683;28;20502;-80
2022/10/25 10:22:44;;;;;;;9.68;2.47;;;18.80;99.90;;;;;;5010990;28;20437;-81
2022/10/25 10:25:24;;;;;;;12.20;2.83;;;19.40;99.90;;;;;;4997008;28;20104;-80
2022/10/25 10:27:53;;;;;;;9.95;2.35;;;19.90;99.90;;;;;;5000094;28;20045;-80
2022/10/25 10:30:28;;;;;;;8.90;2.15;;;20.10;99.90;;;;;;4986226;28;20172;-80
2022/10/25 10:32:58;;;;;;;9.55;2.20;;;20.20;99.90;;;;;;5001400;28;20498;-80
2022/10/25 10:35:27;;;;;;;9.98;2.20;;;20.30;99.90;;;;;;4991176;28;20050;-81
2022/10/25 10:38:13;;;;;;;8.77;1.67;;;20.60;99.90;;;;;;5004298;28;20050;-81
2022/10/25 10:40:39;;;;;;;6.82;1.75;;;21.20;99.90;;;;;;5002438;28;20046;-80
2022/10/25 10:43:22;;;;;;;8.70;1.85;;;21.60;99.90;;;;;;4996488;28;20494;-80
2022/10/25 10:45:50;;;;;;;10.40;1.90;;;21.80;99.90;;;;;;5009643;28;20498;-80
2022/10/25 10:48:21;;;;;;;6.93;1.77;;;21.70;99.90;;;;;;4997935;28;20128;-80
2022/10/25 10:50:50;;;;;;;10.60;2.30;;;22.20;99.90;;;;;;4995580;28;20038;-82
2022/10/25 10:53:28;;;;;;;11.18;2.15;;;22.10;99.90;;;;;;4986214;28;20038;-81
2022/10/25 10:56:03;;;;;;;8.15;1.90;;;22.20;99.90;;;;;;4990673;28;20046;-81
2022/10/25 10:58:36;;;;;;;9.68;1.75;;;22.00;99.90;;;;;;5000542;28;20065;-81
2022/10/25 11:01:04;;;;;;;6.18;1.88;;;21.70;99.90;;;;;;4983994;28;20046;-80
2022/10/25 11:03:55;;;;;;;8.88;1.58;;;21.50;99.90;;;;;;4993585;28;20592;-81
2022/10/25 11:06:27;;;;;;;9.40;1.58;;;21.90;99.90;;;;;;5003278;28;20038;-81
2022/10/25 11:09:18;;;;;;;7.18;1.75;;;22.30;99.90;;;;;;5001873;28;20407;-80
2022/10/25 11:12:02;;;;;;;7.90;1.73;;;22.40;99.90;;;;;;5027373;28;20125;-81
2022/10/25 11:14:27;;;;;;;8.75;1.40;;;22.20;99.90;;;;;;4983610;28;20042;-80
2022/10/25 11:17:17;;;;;;;13.00;2.20;;;21.50;99.90;;;;;;4985494;28;20042;-81
2022/10/25 11:19:45;;;;;;;7.50;1.65;;;20.60;99.90;;;;;;5003181;28;20042;-81
2022/10/25 11:22:38;;;;;;;7.72;1.75;;;20.40;99.90;;;;;;4998923;28;20062;-80
2022/10/25 11:25:34;;;;;;;6.35;1.63;;;20.10;99.90;;;;;;5001788;28;20058;-80
2022/10/25 11:28:44;;;;;;;8.00;1.60;;;20.00;99.90;;;;;;4998312;28;20121;-80
2022/10/25 11:31:32;;;;;;;7.10;1.40;;;19.80;99.90;;;;;;5000679;28;20069;-80
2022/10/25 11:34:12;;;;;;;;;;;19.70;99.90;;;;;;5001451;28;20126;-80
2022/10/25 11:36:48;;;;;;;8.45;1.75;;;19.60;99.90;;;;;;5003886;28;19917;-80
2022/10/25 11:39:27;;;;;;;6.47;1.67;;;19.40;99.90;;;;;;4996174;28;20092;-81
2022/10/25 11:42:16;;;;;;;5.00;1.70;;;19.30;99.90;;;;;;4987341;28;20041;-81
2022/10/25 11:44:58;;;;;;;6.93;1.60;;;19.60;99.90;;;;;;4996918;28;20056;-81
2022/10/25 11:47:43;;;;;;;6.90;1.75;;;20.00;99.90;;;;;;4985161;28;20042;-81
2022/10/25 11:50:27;;;;;;;6.25;1.85;;;20.20;99.90;;;;;;4995179;28;20129;-81
2022/10/25 11:53:06;;;;;;;6.60;1.80;;;21.00;99.90;;;;;;5002609;28;20563;-81
2022/10/25 11:55:51;;;;;;;5.70;1.80;;;21.90;99.90;;;;;;4995821;28;20055;-81
2022/10/25 11:58:26;;;;;;;7.45;1.70;;;22.40;99.90;;;;;;5003391;28;20092;-80
2022/10/25 12:01:11;;;;;;;8.63;1.67;;;22.30;99.90;;;;;;4998428;28;20430;-80
2022/10/25 12:03:55;;;;;;;6.07;1.52;;;21.60;99.90;;;;;;4998651;28;20081;-81
2022/10/25 12:06:23;;;;;;;5.78;1.42;;;21.20;99.90;;;;;;4982201;28;20041;-81
2022/10/25 12:09:09;;;;;;;6.68;1.95;;;20.70;99.90;;;;;;4978661;28;20053;-81
2022/10/25 12:11:43;;;;;;;5.90;1.40;;;20.70;99.90;;;;;;5002324;28;20039;-81
2022/10/25 12:14:27;;;;;;;5.97;1.60;;;20.90;99.90;;;;;;5009133;28;20033;-81
2022/10/25 12:16:56;;;;;;;8.00;1.90;;;20.90;99.90;;;;;;4987909;28;20046;-81
2022/10/25 12:19:29;;;;;;;8.77;1.80;;;21.30;99.90;;;;;;4987975;28;20077;-81
2022/10/25 12:22:03;;;;;;;5.82;1.40;;;21.40;99.90;;;;;;5006438;28;20049;-80
2022/10/25 12:24:38;;;;;;;6.25;1.45;;;21.80;99.90;;;;;;5004850;28;20057;-81
2022/10/25 12:27:07;;;;;;;7.30;1.88;;;21.60;99.90;;;;;;5004225;28;20039;-81
2022/10/25 12:29:46;;;;;;;6.85;1.45;;;21.80;99.90;;;;;;5004807;28;20399;-81
2022/10/25 12:32:30;;;;;;;6.30;1.33;;;21.90;99.90;;;;;;4986279;28;20494;-81
2022/10/25 12:35:00;;;;;;;9.02;1.35;;;21.60;99.90;;;;;;5004097;28;20049;-81
2022/10/25 12:37:25;;;;;;;3.97;1.20;;;21.50;99.90;;;;;;4992185;28;20045;-81
2022/10/25 12:39:51;;;;;;;7.20;1.27;;;21.80;99.90;;;;;;5000691;28;20398;-82
2022/10/25 12:42:43;;;;;;;5.63;1.35;;;22.20;99.90;;;;;;4987272;28;20038;-81
2022/10/25 12:45:27;;;;;;;5.97;1.02;;;22.10;99.90;;;;;;4994728;28;20054;-81
2022/10/25 12:48:08;;;;;;;7.57;1.48;;;21.70;99.90;;;;;;5001159;28;20030;-81
2022/10/25 12:50:48;;;;;;;5.28;1.30;;;21.10;99.90;;;;;;5005587;28;20042;-81
2022/10/25 12:53:29;;;;;;;6.80;1.35;;;20.60;99.90;;;;;;4999577;28;20120;-81
2022/10/25 12:56:29;;;;;;;4.60;1.20;;;20.40;99.90;;;;;;5001678;28;20121;-81
2022/10/25 12:59:26;;;;;;;8.27;2.22;;;20.30;99.90;;;;;;5002047;28;20081;-81